Pagrindinis puslapis
METAR-TAF:

METAR-TAF

Oro uostai :

Choremabadas, Iranas

platuma: 33-26-11N, ilguma: 048-17-09E, Aukštis: 1155 m

Dabartinis oras

Ataskaita buvo paskelbta 4 valandos ir 47 minutes, ne 11:30 UTC
Vėjas 6 kt iš Pietų/Pietryčių
Temperatūra 1°C
Drėgmė 100%
Slėgis 1013 hPa
Matomumas: 4000 m
Mažai debesys ne aukštis 2000 ft
Mažai debesys ne aukštis 2500 ft, Liūtiniai kamuoliniai debesys.
Išsisklaidę debesys ne aukštis 3000 ft
Apsiniaukę ne aukštis 7000 ft
sniegas

METAR: OICK 221130Z 15006KT 4000 -SN FEW020 FEW025CB SCT030 OVC070 01/01 Q1013

Laikas: 19:47 (16:17 UTC)


TAF: trūkstamas

Orai ataskaitas ir orų prognozės (METAR, TAF).

turimą stotys yra geltonos ir raudonos taškus žemėlapyje.

Perkelti pele per norėdami pamatyti stoties vardą.

Tada spustelėkite, norėdami matyti oro stebėjimo ir prognozės.

Norėdami pakeisti žemėlapį: spustelėkite ant žalios mygtukų su juodo kryžiaus žemyn,; žalią mygtuką su brūkšneliu, jei norite nutolinti; arba žalių rodyklių gretimoms žemėlapius.


METAR-TAF: